createdAt,value
2023-05-24T00:04:40.059Z,18.50
2023-05-24T00:09:42.463Z,18.40
2023-05-24T00:14:44.353Z,18.40
2023-05-24T00:19:46.230Z,18.40
2023-05-24T00:24:48.412Z,18.38
2023-05-24T00:29:50.296Z,18.30
2023-05-24T00:34:52.154Z,18.20
2023-05-24T00:39:54.040Z,18.10
2023-05-24T00:44:55.941Z,18.00
2023-05-24T00:49:58.201Z,18.00
2023-05-24T00:55:00.300Z,17.96
2023-05-24T01:00:05.401Z,17.80
2023-05-24T01:05:08.238Z,17.80
2023-05-24T01:10:44.450Z,17.76
2023-05-24T01:15:49.504Z,17.70
2023-05-24T01:21:26.522Z,17.68
2023-05-24T01:27:02.256Z,17.70
2023-05-24T01:32:05.324Z,17.70
2023-05-24T01:37:07.149Z,17.70
2023-05-24T01:42:25.435Z,17.66
2023-05-24T01:47:27.221Z,17.60
2023-05-24T01:52:34.861Z,17.60
2023-05-24T01:57:40.825Z,17.60
2023-05-24T02:02:43.251Z,17.50
2023-05-24T02:07:45.834Z,17.40
2023-05-24T02:12:47.608Z,17.40
2023-05-24T02:17:49.457Z,17.30
2023-05-24T02:22:51.264Z,17.20
2023-05-24T02:27:53.142Z,17.20
2023-05-24T02:32:55.932Z,17.10
2023-05-24T02:37:58.229Z,17.00
2023-05-24T02:43:00.019Z,17.00
2023-05-24T02:48:02.146Z,16.98
2023-05-24T02:53:04.062Z,17.00
2023-05-24T02:58:05.959Z,16.90
2023-05-24T03:03:07.959Z,16.90
2023-05-24T03:08:09.900Z,16.90
2023-05-24T03:13:11.817Z,16.90
2023-05-24T03:18:13.759Z,17.00
2023-05-24T03:23:16.153Z,17.00
2023-05-24T03:28:18.744Z,17.10
2023-05-24T03:33:20.829Z,17.10
2023-05-24T03:38:22.622Z,17.10
2023-05-24T03:43:24.686Z,17.12
2023-05-24T03:48:26.660Z,17.20
2023-05-24T03:53:28.573Z,17.20
2023-05-24T03:58:30.726Z,17.30
2023-05-24T04:03:33.764Z,17.40
2023-05-24T04:08:36.018Z,17.40
2023-05-24T04:13:37.898Z,17.50
2023-05-24T04:18:39.992Z,17.66
2023-05-24T04:23:42.159Z,17.90
2023-05-24T04:28:45.277Z,18.20
2023-05-24T04:33:47.554Z,18.44
2023-05-24T04:38:50.078Z,18.50
2023-05-24T04:43:52.949Z,18.50
2023-05-24T04:48:54.833Z,18.60
2023-05-24T04:53:56.638Z,18.70
2023-05-24T04:58:58.374Z,18.74
2023-05-24T05:04:00.587Z,18.80
2023-05-24T05:09:02.483Z,18.90
2023-05-24T05:14:05.680Z,19.00
2023-05-24T05:19:08.036Z,19.00
2023-05-24T05:24:09.826Z,19.10
2023-05-24T05:29:11.605Z,19.20
2023-05-24T05:34:13.496Z,19.32
2023-05-24T05:39:15.448Z,19.50
2023-05-24T05:44:17.657Z,19.60
2023-05-24T05:49:20.337Z,19.70
2023-05-24T05:54:22.460Z,19.80
2023-05-24T05:59:24.542Z,19.90
2023-05-24T06:04:26.517Z,20.00
2023-05-24T06:09:28.442Z,20.00
2023-05-24T06:14:31.268Z,20.10
2023-05-24T06:19:33.449Z,20.30
2023-05-24T06:24:36.143Z,20.38
2023-05-24T06:29:38.043Z,20.50
2023-05-24T06:34:39.789Z,20.80
2023-05-24T06:39:41.875Z,21.00
2023-05-24T06:44:43.953Z,21.10
2023-05-24T06:49:47.675Z,21.48
2023-05-24T06:54:50.194Z,21.60
2023-05-24T06:59:52.246Z,21.70
2023-05-24T07:04:54.583Z,21.90
2023-05-24T07:09:56.612Z,22.20
2023-05-24T07:14:58.596Z,22.50
2023-05-24T07:20:01.940Z,22.80
2023-05-24T07:25:05.217Z,23.00
2023-05-24T07:30:16.422Z,23.30
2023-05-24T07:35:28.947Z,23.60
2023-05-24T07:40:30.814Z,23.80
2023-05-24T07:45:33.522Z,24.00
2023-05-24T07:50:36.018Z,24.20
2023-05-24T07:55:38.563Z,24.40
2023-05-24T08:00:40.922Z,24.60
2023-05-24T08:05:43.600Z,24.90
2023-05-24T08:10:45.768Z,25.20
2023-05-24T08:15:48.067Z,25.40
2023-05-24T08:20:50.352Z,25.60
2023-05-24T08:25:53.053Z,25.80
2023-05-24T08:30:55.471Z,26.10
2023-05-24T08:35:57.510Z,26.40
2023-05-24T08:41:00.135Z,26.70
2023-05-24T08:46:03.895Z,27.06
2023-05-24T08:51:07.242Z,27.40
2023-05-24T08:56:10.075Z,27.70
2023-05-24T09:01:14.563Z,27.90
2023-05-24T09:06:18.976Z,28.20
2023-05-24T09:11:23.870Z,28.40
2023-05-24T09:16:26.003Z,28.66
2023-05-24T09:21:29.199Z,28.90
2023-05-24T09:26:31.542Z,29.00
2023-05-24T09:31:36.434Z,29.20
2023-05-24T09:36:42.604Z,29.42
2023-05-24T09:41:56.712Z,29.72
2023-05-24T09:47:06.222Z,30.18
2023-05-24T09:52:08.102Z,30.40
2023-05-24T09:57:10.867Z,30.60
2023-05-24T10:02:13.056Z,31.00
2023-05-24T10:07:16.427Z,31.30
2023-05-24T10:12:22.575Z,31.50
2023-05-24T10:17:27.682Z,31.80
2023-05-24T10:22:32.354Z,32.00
2023-05-24T10:27:36.451Z,32.20
2023-05-24T10:32:40.734Z,32.00
2023-05-24T10:37:42.698Z,32.20
2023-05-24T10:42:45.418Z,32.40
2023-05-24T10:47:47.281Z,32.70
2023-05-24T10:52:49.554Z,32.80
2023-05-24T10:57:52.148Z,32.90
2023-05-24T11:03:08.811Z,33.26
2023-05-24T11:08:11.051Z,33.66
2023-05-24T11:13:14.376Z,34.00
2023-05-24T11:18:17.014Z,33.90
2023-05-24T11:23:20.167Z,34.00
2023-05-24T11:28:23.163Z,33.94
2023-05-24T11:33:25.049Z,34.30
2023-05-24T11:38:27.241Z,34.20
2023-05-24T11:43:31.054Z,33.90
2023-05-24T11:48:33.453Z,33.82
2023-05-24T11:53:35.872Z,34.20
2023-05-24T11:58:55.686Z,34.60
2023-05-24T12:03:57.804Z,34.72
2023-05-24T12:08:59.908Z,35.24
2023-05-24T12:14:02.291Z,35.70
2023-05-24T12:19:07.425Z,36.16
2023-05-24T12:24:17.036Z,36.50
2023-05-24T12:29:19.404Z,36.40
2023-05-24T12:34:21.189Z,36.40
2023-05-24T12:39:30.955Z,35.86
2023-05-24T12:44:38.070Z,35.10
2023-05-24T12:49:39.934Z,34.68
2023-05-24T12:54:41.794Z,34.60
2023-05-24T12:59:43.787Z,34.50
2023-05-24T13:04:46.168Z,34.30
2023-05-24T13:09:49.063Z,34.30
2023-05-24T13:14:52.806Z,34.20
2023-05-24T13:19:57.019Z,34.10
2023-05-24T13:24:58.818Z,34.06
2023-05-24T13:30:01.528Z,33.90
2023-05-24T13:35:06.652Z,33.60
2023-05-24T13:40:11.242Z,33.50
2023-05-24T13:45:13.271Z,33.38
2023-05-24T13:50:15.237Z,33.30
2023-05-24T13:55:17.007Z,33.10
2023-05-24T14:00:19.839Z,32.40
2023-05-24T14:05:27.324Z,31.80
2023-05-24T14:10:29.938Z,31.00
2023-05-24T14:15:33.533Z,31.40
2023-05-24T14:20:37.348Z,32.50
2023-05-24T14:25:40.948Z,32.76
2023-05-24T14:30:43.357Z,32.40
2023-05-24T14:35:46.206Z,32.20
2023-05-24T14:40:48.664Z,32.20
2023-05-24T14:45:51.110Z,31.72
2023-05-24T14:50:53.230Z,31.30
2023-05-24T14:55:55.309Z,31.28
2023-05-24T15:00:57.262Z,31.30
2023-05-24T15:05:59.388Z,31.50
2023-05-24T15:11:01.559Z,31.30
2023-05-24T15:16:04.148Z,30.90
2023-05-24T15:21:06.048Z,30.60
2023-05-24T15:26:07.934Z,30.30
2023-05-24T15:31:10.422Z,30.28
2023-05-24T15:36:14.020Z,30.10
2023-05-24T15:41:15.925Z,29.70
2023-05-24T15:46:21.496Z,29.40
2023-05-24T15:52:01.642Z,29.40
2023-05-24T15:56:45.183Z,29.30
2023-05-24T16:01:47.149Z,29.22
2023-05-24T16:06:49.408Z,30.18
2023-05-24T16:11:51.631Z,30.90
2023-05-24T16:16:54.237Z,30.60
2023-05-24T16:21:57.042Z,30.40
2023-05-24T16:26:59.428Z,30.20
2023-05-24T16:32:01.422Z,29.80
2023-05-24T16:37:03.273Z,29.48
2023-05-24T16:42:06.716Z,29.30
2023-05-24T16:47:08.701Z,29.24
2023-05-24T16:52:10.857Z,29.30
2023-05-24T16:57:12.741Z,29.50
2023-05-24T17:02:15.026Z,29.98
2023-05-24T17:07:16.802Z,30.00
2023-05-24T17:12:20.756Z,30.10
2023-05-24T17:17:22.744Z,29.78
2023-05-24T17:22:24.577Z,29.50
2023-05-24T17:27:26.465Z,29.20
2023-05-24T17:32:28.267Z,28.80
2023-05-24T17:37:30.215Z,28.50
2023-05-24T17:42:32.292Z,28.60
2023-05-24T17:47:34.525Z,28.20
2023-05-24T17:52:36.897Z,27.80
2023-05-24T17:57:38.840Z,27.60
2023-05-24T18:02:41.116Z,27.40
2023-05-24T18:07:43.314Z,27.20
2023-05-24T18:12:45.213Z,27.00
2023-05-24T18:17:47.085Z,26.80
2023-05-24T18:22:49.250Z,26.66
2023-05-24T18:27:51.363Z,26.60
2023-05-24T18:38:05.156Z,26.20
2023-05-24T18:43:07.129Z,26.10
2023-05-24T18:48:09.355Z,25.90
2023-05-24T18:53:11.379Z,25.70
2023-05-24T18:58:16.468Z,25.40
2023-05-24T19:03:18.624Z,25.46
2023-05-24T19:08:20.697Z,25.50
2023-05-24T19:13:22.615Z,25.52
2023-05-24T19:18:24.677Z,25.40
2023-05-24T19:23:27.184Z,25.36
2023-05-24T19:28:29.953Z,25.30
2023-05-24T19:33:31.825Z,25.20
2023-05-24T19:38:33.850Z,25.10
2023-05-24T19:43:36.098Z,25.00
2023-05-24T19:48:39.000Z,24.82
2023-05-24T19:53:41.387Z,24.64
2023-05-24T19:58:43.785Z,24.50
2023-05-24T20:03:48.426Z,24.30
2023-05-24T20:08:52.471Z,24.10
2023-05-24T20:13:55.655Z,23.90
2023-05-24T20:18:57.831Z,23.70
2023-05-24T20:23:59.730Z,23.60
2023-05-24T20:29:01.696Z,23.50
2023-05-24T20:34:03.881Z,23.40
2023-05-24T20:39:06.398Z,23.30
2023-05-24T20:44:08.252Z,23.10
2023-05-24T20:49:10.156Z,23.00
2023-05-24T20:54:13.593Z,22.80
2023-05-24T20:59:15.727Z,22.70
2023-05-24T21:04:19.136Z,22.50
2023-05-24T21:09:21.637Z,22.30
2023-05-24T21:14:23.544Z,22.30
2023-05-24T21:19:25.601Z,22.30
2023-05-24T21:24:27.582Z,22.20
2023-05-24T21:29:29.759Z,22.02
2023-05-24T21:34:31.525Z,21.70
2023-05-24T21:39:33.429Z,21.50
2023-05-24T21:44:35.328Z,21.40
2023-05-24T21:49:37.574Z,21.30
2023-05-24T21:54:39.452Z,21.38
2023-05-24T21:59:41.332Z,21.40
2023-05-24T22:04:43.329Z,21.50
2023-05-24T22:09:45.488Z,21.50
2023-05-24T22:14:47.673Z,21.48
2023-05-24T22:19:49.742Z,21.38
2023-05-24T22:24:51.652Z,21.30
2023-05-24T22:29:56.808Z,21.24
2023-05-24T22:34:58.680Z,21.20
2023-05-24T22:40:00.544Z,21.10
2023-05-24T22:45:03.083Z,21.00
2023-05-24T22:50:07.588Z,20.80
2023-05-24T22:55:13.265Z,20.60
2023-05-24T23:00:16.041Z,20.50
2023-05-24T23:05:21.209Z,20.40
2023-05-24T23:10:23.070Z,20.30
2023-05-24T23:15:28.665Z,20.20
2023-05-24T23:20:30.753Z,20.18
2023-05-24T23:25:34.235Z,19.90
2023-05-24T23:30:36.029Z,19.80
2023-05-24T23:35:40.858Z,19.80
2023-05-24T23:40:42.853Z,19.70
2023-05-24T23:45:45.231Z,19.60
2023-05-24T23:50:53.904Z,19.50
2023-05-24T23:55:56.389Z,19.40
